createdAt,value
2022-09-22T00:01:40.630Z,5.35
2022-09-22T00:04:13.605Z,5.40
2022-09-22T00:06:48.806Z,5.50
2022-09-22T00:09:20.674Z,5.57
2022-09-22T00:11:52.278Z,5.66
2022-09-22T00:14:27.474Z,5.69
2022-09-22T00:17:05.547Z,5.73
2022-09-22T00:19:37.228Z,5.76
2022-09-22T00:22:06.549Z,5.80
2022-09-22T00:24:35.504Z,5.83
2022-09-22T00:27:04.343Z,5.90
2022-09-22T00:29:33.060Z,5.97
2022-09-22T00:32:07.147Z,5.89
2022-09-22T00:34:36.255Z,6.05
2022-09-22T00:37:05.053Z,6.07
2022-09-22T00:39:33.747Z,6.08
2022-09-22T00:42:02.533Z,6.09
2022-09-22T00:44:34.588Z,6.12
2022-09-22T00:47:14.164Z,6.18
2022-09-22T00:50:00.995Z,6.20
2022-09-22T00:52:32.968Z,6.06
2022-09-22T00:55:05.213Z,5.72
2022-09-22T00:57:37.447Z,5.51
2022-09-22T01:00:10.151Z,5.32
2022-09-22T01:02:39.548Z,5.22
2022-09-22T01:05:09.501Z,5.15
2022-09-22T01:07:38.580Z,5.11
2022-09-22T01:10:08.195Z,5.15
2022-09-22T01:12:37.659Z,5.13
2022-09-22T01:15:15.126Z,5.05
2022-09-22T01:18:01.875Z,5.06
2022-09-22T01:20:42.454Z,5.12
2022-09-22T01:23:32.386Z,5.10
2022-09-22T01:26:25.200Z,5.13
2022-09-22T01:29:12.635Z,5.11
2022-09-22T01:32:33.472Z,5.06
2022-09-22T01:35:13.646Z,4.99
2022-09-22T01:37:54.418Z,4.96
2022-09-22T01:40:41.083Z,4.97
2022-09-22T01:43:31.914Z,4.88
2022-09-22T01:46:05.744Z,4.95
2022-09-22T01:48:37.421Z,4.92
2022-09-22T01:51:15.440Z,4.93
2022-09-22T01:53:54.441Z,4.95
2022-09-22T01:56:26.095Z,4.86
2022-09-22T01:58:59.437Z,4.87
2022-09-22T02:01:36.403Z,4.83
2022-09-22T02:04:15.030Z,4.86
2022-09-22T02:06:53.095Z,4.89
2022-09-22T02:09:27.699Z,4.94
2022-09-22T02:11:58.026Z,4.88
2022-09-22T02:14:27.650Z,4.85
2022-09-22T02:16:57.737Z,4.73
2022-09-22T02:19:29.936Z,4.70
2022-09-22T02:21:59.751Z,4.71
2022-09-22T02:24:41.717Z,4.66
2022-09-22T02:27:13.941Z,4.65
2022-09-22T02:30:22.848Z,4.59
2022-09-22T02:32:54.899Z,4.55
2022-09-22T02:35:27.492Z,4.58
2022-09-22T02:38:11.195Z,4.51
2022-09-22T02:40:57.019Z,4.44
2022-09-22T02:43:51.727Z,4.54
2022-09-22T02:46:31.287Z,4.53
2022-09-22T02:49:12.086Z,4.55
2022-09-22T02:51:42.598Z,4.59
2022-09-22T02:54:11.346Z,4.67
2022-09-22T02:56:40.065Z,4.83
2022-09-22T02:59:12.552Z,4.89
2022-09-22T03:01:41.980Z,4.94
2022-09-22T03:04:11.112Z,4.91
2022-09-22T03:06:39.996Z,4.88
2022-09-22T03:09:08.709Z,4.92
2022-09-22T03:11:37.445Z,4.90
2022-09-22T03:14:06.118Z,4.86
2022-09-22T03:16:35.024Z,4.91
2022-09-22T03:19:03.944Z,4.91
2022-09-22T03:21:32.700Z,4.87
2022-09-22T03:24:01.505Z,4.80
2022-09-22T03:26:30.299Z,4.73
2022-09-22T03:28:59.228Z,4.75
2022-09-22T03:31:27.980Z,4.69
2022-09-22T03:33:56.644Z,4.72
2022-09-22T03:36:25.473Z,4.69
2022-09-22T03:38:54.264Z,4.69
2022-09-22T03:41:23.000Z,4.69
2022-09-22T03:43:51.714Z,4.76
2022-09-22T03:46:20.598Z,4.78
2022-09-22T03:48:49.395Z,4.83
2022-09-22T03:51:18.266Z,4.86
2022-09-22T03:53:47.085Z,4.88
2022-09-22T03:56:17.051Z,4.99
2022-09-22T03:58:45.896Z,5.10
2022-09-22T04:01:15.243Z,5.14
2022-09-22T04:03:44.234Z,5.22
2022-09-22T04:06:13.354Z,5.35
2022-09-22T04:08:42.180Z,5.30
2022-09-22T04:11:10.918Z,5.28
2022-09-22T04:13:44.022Z,5.19
2022-09-22T04:16:15.725Z,5.16
2022-09-22T04:18:44.562Z,5.17
2022-09-22T04:21:13.780Z,5.13
2022-09-22T04:23:42.493Z,5.11
2022-09-22T04:26:11.181Z,5.12
2022-09-22T04:28:39.915Z,5.07
2022-09-22T04:31:08.742Z,5.02
2022-09-22T04:33:37.994Z,4.99
2022-09-22T04:36:07.142Z,4.90
2022-09-22T04:38:35.901Z,4.90
2022-09-22T04:41:04.635Z,4.86
2022-09-22T04:43:33.425Z,4.90
2022-09-22T04:46:02.418Z,5.05
2022-09-22T04:48:31.260Z,5.17
2022-09-22T04:51:00.261Z,5.27
2022-09-22T04:53:29.763Z,5.33
2022-09-22T04:55:58.738Z,5.39
2022-09-22T04:58:27.798Z,5.44
2022-09-22T05:01:02.104Z,5.38
2022-09-22T05:03:31.427Z,5.38
2022-09-22T05:06:00.246Z,5.36
2022-09-22T05:08:28.929Z,5.43
2022-09-22T05:10:57.858Z,5.53
2022-09-22T05:13:26.755Z,5.55
2022-09-22T05:15:55.543Z,5.59
2022-09-22T05:18:24.352Z,5.71
2022-09-22T05:20:53.176Z,5.86
2022-09-22T05:23:22.019Z,6.08
2022-09-22T05:25:50.808Z,6.31
2022-09-22T05:28:20.962Z,6.60
2022-09-22T05:30:52.864Z,7.04
2022-09-22T05:33:21.861Z,7.50
2022-09-22T05:35:50.795Z,7.73
2022-09-22T05:38:19.696Z,8.00
2022-09-22T05:40:48.540Z,8.19
2022-09-22T05:43:17.309Z,8.35
2022-09-22T05:45:46.551Z,8.48
2022-09-22T05:48:15.286Z,8.82
2022-09-22T05:50:46.090Z,9.15
2022-09-22T05:53:15.176Z,9.25
2022-09-22T05:55:43.867Z,9.55
2022-09-22T05:58:13.092Z,10.12
2022-09-22T06:00:43.101Z,10.75
2022-09-22T06:03:12.233Z,11.63
2022-09-22T06:05:41.026Z,11.96
2022-09-22T06:08:10.297Z,12.52
2022-09-22T06:10:39.959Z,12.48
2022-09-22T06:13:11.282Z,11.85
2022-09-22T06:15:40.486Z,11.29
2022-09-22T06:18:15.163Z,10.86
2022-09-22T06:20:45.393Z,10.39
2022-09-22T06:23:15.969Z,10.02
2022-09-22T06:25:45.166Z,9.84
2022-09-22T06:28:15.164Z,9.75
2022-09-22T06:30:43.889Z,9.79
2022-09-22T06:33:12.861Z,9.86
2022-09-22T06:35:43.448Z,9.73
2022-09-22T06:38:15.535Z,9.68
2022-09-22T06:40:45.518Z,9.60
2022-09-22T06:43:25.754Z,9.53
2022-09-22T06:45:54.573Z,9.45
2022-09-22T06:48:24.533Z,9.47
2022-09-22T06:50:55.088Z,9.57
2022-09-22T06:53:27.107Z,9.58
2022-09-22T06:55:56.535Z,9.55
2022-09-22T06:58:25.904Z,9.47
2022-09-22T07:00:55.317Z,9.50
2022-09-22T07:03:26.808Z,9.50
2022-09-22T07:06:01.506Z,9.41
2022-09-22T07:08:32.209Z,9.31
2022-09-22T07:11:03.453Z,9.16
2022-09-22T07:13:33.112Z,8.94
2022-09-22T07:16:03.900Z,8.68
2022-09-22T07:18:32.684Z,8.43
2022-09-22T07:21:31.153Z,8.20
2022-09-22T07:24:00.115Z,8.05
2022-09-22T07:26:34.579Z,7.85
2022-09-22T07:29:06.740Z,7.81
2022-09-22T07:31:37.381Z,7.88
2022-09-22T07:34:06.273Z,8.09
2022-09-22T07:36:37.552Z,8.34
2022-09-22T07:39:11.574Z,8.45
2022-09-22T07:41:43.935Z,8.48
2022-09-22T07:44:34.383Z,8.42
2022-09-22T07:47:04.085Z,8.42
2022-09-22T07:49:32.993Z,8.56
2022-09-22T07:52:02.001Z,8.65
2022-09-22T07:54:31.297Z,8.71
2022-09-22T07:57:00.127Z,8.59
2022-09-22T07:59:28.947Z,8.50
2022-09-22T08:01:59.007Z,8.43
2022-09-22T08:04:31.281Z,8.37
2022-09-22T08:07:00.483Z,8.34
2022-09-22T08:09:30.850Z,8.35
2022-09-22T08:12:00.503Z,8.35
2022-09-22T08:14:30.494Z,8.47
2022-09-22T08:16:59.175Z,8.55
2022-09-22T08:19:27.955Z,8.60
2022-09-22T08:21:56.678Z,8.66
2022-09-22T08:24:25.731Z,8.72
2022-09-22T08:26:56.472Z,8.79
2022-09-22T08:29:25.364Z,8.83
2022-09-22T08:31:54.786Z,8.88
2022-09-22T08:34:23.650Z,8.93
2022-09-22T08:36:52.410Z,9.01
2022-09-22T08:39:21.314Z,9.14
2022-09-22T08:42:29.141Z,9.32
2022-09-22T08:45:07.748Z,9.61
2022-09-22T08:48:06.487Z,9.98
2022-09-22T08:51:17.173Z,10.29
2022-09-22T08:53:52.071Z,10.72
2022-09-22T08:56:37.339Z,11.02
2022-09-22T08:59:24.251Z,11.17
2022-09-22T09:02:03.279Z,11.28
2022-09-22T09:04:43.575Z,11.31
2022-09-22T09:07:12.432Z,11.32
2022-09-22T09:10:02.445Z,11.21
2022-09-22T09:12:48.509Z,11.24
2022-09-22T09:15:32.649Z,11.23
2022-09-22T09:18:08.114Z,11.20
2022-09-22T09:20:40.512Z,11.22
2022-09-22T09:23:19.652Z,11.18
2022-09-22T09:25:53.016Z,11.20
2022-09-22T09:28:30.492Z,11.19
2022-09-22T09:31:22.216Z,11.33
2022-09-22T09:33:59.439Z,11.45
2022-09-22T09:36:32.106Z,11.50
2022-09-22T09:39:11.240Z,11.47
2022-09-22T09:41:42.117Z,11.27
2022-09-22T09:44:22.938Z,11.02
2022-09-22T09:47:15.049Z,10.80
2022-09-22T09:49:44.867Z,10.57
2022-09-22T09:52:15.600Z,10.47
2022-09-22T09:54:47.845Z,10.36
2022-09-22T09:57:18.832Z,10.32
2022-09-22T10:00:32.888Z,10.24
2022-09-22T10:03:07.027Z,10.13
2022-09-22T10:05:38.135Z,10.04
2022-09-22T10:08:20.752Z,9.95
2022-09-22T10:10:49.831Z,9.96
2022-09-22T10:13:30.114Z,9.95
2022-09-22T10:16:08.004Z,10.02
2022-09-22T10:18:42.203Z,10.03
2022-09-22T10:21:15.194Z,9.97
2022-09-22T10:23:45.791Z,9.94
2022-09-22T10:26:16.419Z,9.87
2022-09-22T10:28:51.297Z,9.84
2022-09-22T10:31:27.677Z,9.83
2022-09-22T10:34:01.134Z,9.81
2022-09-22T10:36:31.842Z,9.88
2022-09-22T10:39:00.528Z,9.93
2022-09-22T10:41:35.868Z,9.97
2022-09-22T10:47:26.166Z,10.02
2022-09-22T10:50:36.178Z,10.06
2022-09-22T10:53:28.003Z,10.10
2022-09-22T10:56:14.727Z,10.12
2022-09-22T10:58:58.964Z,10.11
2022-09-22T11:01:44.252Z,10.17
2022-09-22T11:04:50.951Z,10.20
2022-09-22T11:07:58.083Z,10.23
2022-09-22T11:10:59.352Z,10.22
2022-09-22T11:13:53.219Z,10.14
2022-09-22T11:16:22.114Z,10.18
2022-09-22T11:18:51.359Z,10.19
2022-09-22T11:21:44.595Z,10.18
2022-09-22T11:24:16.013Z,10.19
2022-09-22T11:26:58.111Z,10.15
2022-09-22T11:29:47.390Z,10.17
2022-09-22T11:32:27.041Z,10.22
2022-09-22T11:35:15.351Z,10.19
2022-09-22T11:37:56.005Z,10.20
2022-09-22T11:40:37.004Z,10.22
2022-09-22T11:43:09.914Z,10.22
2022-09-22T11:45:49.816Z,10.23
2022-09-22T11:48:30.372Z,10.25
2022-09-22T11:51:09.428Z,10.26
2022-09-22T11:53:56.487Z,10.27
2022-09-22T11:56:43.092Z,10.27
2022-09-22T11:59:21.424Z,10.24
2022-09-22T12:01:52.987Z,10.28
2022-09-22T12:04:53.571Z,10.26
2022-09-22T12:07:31.874Z,10.23
2022-09-22T12:10:07.743Z,10.22
2022-09-22T12:12:38.249Z,10.17
2022-09-22T12:15:32.070Z,10.14
2022-09-22T12:18:15.838Z,10.18
2022-09-22T12:21:00.914Z,10.00
2022-09-22T12:23:45.289Z,10.06
2022-09-22T12:26:28.029Z,10.14
2022-09-22T12:28:59.220Z,9.97
2022-09-22T12:31:37.456Z,10.13
2022-09-22T12:34:16.460Z,10.08
2022-09-22T12:36:46.642Z,10.13
2022-09-22T12:39:19.589Z,10.10
2022-09-22T12:41:48.825Z,10.10
2022-09-22T12:44:25.551Z,9.99
2022-09-22T12:47:03.462Z,9.88
2022-09-22T12:49:32.768Z,9.96
2022-09-22T12:52:01.826Z,9.87
2022-09-22T12:54:38.488Z,9.77
2022-09-22T12:57:10.688Z,10.01
2022-09-22T12:59:40.127Z,10.03
2022-09-22T13:02:16.758Z,10.03
2022-09-22T13:04:56.072Z,10.02
2022-09-22T13:07:37.001Z,10.00
2022-09-22T13:10:28.037Z,10.00
2022-09-22T13:13:12.324Z,10.00
2022-09-22T13:15:47.738Z,10.01
2022-09-22T13:18:37.348Z,10.03
2022-09-22T13:21:15.358Z,10.01
2022-09-22T13:23:56.644Z,9.97
2022-09-22T13:26:39.030Z,9.95
2022-09-22T13:32:41.146Z,9.70
2022-09-22T13:35:34.705Z,9.85
2022-09-22T13:38:03.884Z,9.61
2022-09-22T13:40:35.567Z,9.79
2022-09-22T13:43:11.056Z,9.75
2022-09-22T13:45:40.975Z,9.82
2022-09-22T13:48:15.373Z,9.59
2022-09-22T13:51:19.715Z,9.83
2022-09-22T13:53:53.391Z,9.70
2022-09-22T13:56:25.435Z,9.82
2022-09-22T13:59:04.208Z,9.91
2022-09-22T14:01:34.794Z,9.95
2022-09-22T14:04:04.797Z,9.89
2022-09-22T14:06:35.302Z,9.90
2022-09-22T14:09:16.994Z,9.95
2022-09-22T14:11:45.987Z,9.96
2022-09-22T14:14:32.284Z,9.96
2022-09-22T14:17:06.439Z,9.68
2022-09-22T14:19:41.748Z,9.93
2022-09-22T14:22:32.807Z,9.77
2022-09-22T14:25:04.923Z,9.65
2022-09-22T14:27:42.058Z,9.71
2022-09-22T14:30:18.835Z,9.98
2022-09-22T14:32:57.417Z,9.92
2022-09-22T14:35:37.077Z,10.01
2022-09-22T14:38:16.632Z,9.91
2022-09-22T14:40:55.834Z,9.79
2022-09-22T14:43:39.681Z,9.91
2022-09-22T14:46:42.441Z,10.11
2022-09-22T14:49:41.407Z,10.15
2022-09-22T14:52:25.845Z,9.84
2022-09-22T14:54:58.168Z,9.90
2022-09-22T14:57:28.294Z,10.02
2022-09-22T15:00:18.259Z,10.09
2022-09-22T15:02:53.631Z,10.09
2022-09-22T15:05:30.418Z,10.09
2022-09-22T15:08:01.037Z,10.07
2022-09-22T15:10:33.281Z,9.87
2022-09-22T15:13:32.106Z,9.98
2022-09-22T15:16:01.351Z,9.87
2022-09-22T15:18:31.198Z,9.72
2022-09-22T15:21:22.596Z,9.81
2022-09-22T15:23:52.252Z,9.88
2022-09-22T15:26:25.586Z,9.90
2022-09-22T15:28:59.527Z,9.79
2022-09-22T15:31:30.371Z,9.83
2022-09-22T15:34:03.694Z,9.90
2022-09-22T15:36:34.002Z,9.92
2022-09-22T15:39:20.075Z,9.91
2022-09-22T15:41:49.191Z,9.78
2022-09-22T15:44:18.771Z,9.60
2022-09-22T15:46:54.765Z,9.84
2022-09-22T15:49:27.057Z,9.84
2022-09-22T15:51:59.236Z,9.75
2022-09-22T15:54:29.968Z,9.85
2022-09-22T15:57:00.473Z,9.60
2022-09-22T15:59:33.236Z,9.85
2022-09-22T16:02:03.582Z,9.80
2022-09-22T16:04:34.921Z,9.80
2022-09-22T16:07:08.933Z,9.76
2022-09-22T16:09:37.785Z,9.88
2022-09-22T16:12:11.459Z,9.96
2022-09-22T16:14:41.952Z,9.99
2022-09-22T16:17:10.888Z,10.04
2022-09-22T16:19:39.683Z,9.92
2022-09-22T16:22:08.428Z,10.03
2022-09-22T16:24:37.309Z,9.79
2022-09-22T16:27:09.353Z,9.76
2022-09-22T16:29:38.084Z,9.58
2022-09-22T16:32:07.501Z,9.77
2022-09-22T16:34:37.950Z,9.53
2022-09-22T16:37:06.809Z,9.55
2022-09-22T16:39:35.751Z,9.66
2022-09-22T16:42:04.794Z,9.54
2022-09-22T16:44:33.725Z,9.70
2022-09-22T16:47:02.810Z,9.70
2022-09-22T16:49:34.020Z,9.58
2022-09-22T16:52:03.080Z,9.71
2022-09-22T16:54:34.375Z,9.61
2022-09-22T16:57:03.123Z,9.67
2022-09-22T16:59:31.932Z,9.60
2022-09-22T17:02:01.559Z,9.54
2022-09-22T17:04:32.858Z,9.46
2022-09-22T17:07:03.880Z,9.16
2022-09-22T17:09:32.827Z,9.26
2022-09-22T17:12:02.991Z,9.22
2022-09-22T17:14:33.147Z,9.32
2022-09-22T17:17:07.155Z,9.29
2022-09-22T17:19:36.266Z,9.34
2022-09-22T17:22:05.717Z,9.28
2022-09-22T17:24:34.949Z,9.30
2022-09-22T17:27:04.049Z,9.41
2022-09-22T17:29:33.343Z,9.46
2022-09-22T17:32:09.323Z,9.32
2022-09-22T17:34:38.896Z,9.39
2022-09-22T17:37:07.730Z,9.40
2022-09-22T17:39:36.727Z,9.36
2022-09-22T17:42:06.287Z,9.34
2022-09-22T17:44:36.210Z,9.52
2022-09-22T17:47:23.488Z,9.35
2022-09-22T17:50:10.829Z,9.47
2022-09-22T17:52:40.790Z,9.30
2022-09-22T17:55:19.746Z,9.42
2022-09-22T17:57:48.897Z,9.43
2022-09-22T18:00:21.927Z,9.45
2022-09-22T18:02:53.701Z,9.46
2022-09-22T18:05:26.395Z,9.74
2022-09-22T18:07:59.038Z,9.78
2022-09-22T18:10:32.911Z,9.57
2022-09-22T18:13:02.930Z,9.66
2022-09-22T18:15:31.943Z,9.57
2022-09-22T18:18:00.804Z,9.81
2022-09-22T18:20:30.354Z,9.96
2022-09-22T18:23:01.238Z,9.97
2022-09-22T18:25:30.915Z,9.89
2022-09-22T18:28:01.118Z,10.07
2022-09-22T18:30:30.056Z,9.92
2022-09-22T18:32:58.760Z,9.81
2022-09-22T18:35:29.426Z,9.72
2022-09-22T18:37:59.895Z,9.76
2022-09-22T18:40:30.613Z,9.67
2022-09-22T18:42:59.407Z,9.68
2022-09-22T18:45:28.655Z,9.66
2022-09-22T18:47:59.817Z,9.69
2022-09-22T18:50:36.197Z,9.67
2022-09-22T18:53:04.864Z,9.67
2022-09-22T18:55:33.607Z,9.68
2022-09-22T18:58:02.348Z,9.70
2022-09-22T19:00:32.213Z,9.71
2022-09-22T19:03:01.103Z,9.76
2022-09-22T19:05:34.565Z,9.80
2022-09-22T19:08:10.027Z,9.84
2022-09-22T19:10:41.286Z,9.84
2022-09-22T19:13:10.055Z,9.89
2022-09-22T19:15:42.432Z,9.83
2022-09-22T19:18:11.250Z,9.71
2022-09-22T19:20:40.197Z,9.64
2022-09-22T19:23:08.840Z,9.64
2022-09-22T19:25:39.345Z,9.62
2022-09-22T19:28:08.400Z,9.58
2022-09-22T19:30:37.137Z,9.56
2022-09-22T19:33:06.189Z,9.49
2022-09-22T19:35:39.021Z,9.46
2022-09-22T19:38:08.214Z,9.41
2022-09-22T19:40:37.079Z,9.42
2022-09-22T19:43:05.806Z,9.38
2022-09-22T19:45:34.546Z,9.24
2022-09-22T19:48:04.408Z,9.39
2022-09-22T19:50:33.104Z,9.43
2022-09-22T19:53:01.998Z,9.47
2022-09-22T19:55:30.687Z,9.49
2022-09-22T19:57:59.606Z,9.47
2022-09-22T20:00:28.835Z,9.48
2022-09-22T20:03:01.316Z,9.45
2022-09-22T20:05:37.450Z,9.41
2022-09-22T20:08:08.722Z,9.44
2022-09-22T20:10:37.602Z,9.44
2022-09-22T20:13:29.875Z,9.44
2022-09-22T20:16:04.551Z,9.47
2022-09-22T20:18:41.242Z,9.47
2022-09-22T20:21:14.572Z,9.56
2022-09-22T20:23:43.277Z,9.62
2022-09-22T20:26:12.085Z,9.67
2022-09-22T20:28:42.219Z,9.69
2022-09-22T20:31:12.412Z,9.75
2022-09-22T20:33:44.457Z,9.78
2022-09-22T20:36:16.907Z,9.81
2022-09-22T20:38:45.885Z,9.80
2022-09-22T20:41:23.738Z,9.88
2022-09-22T20:43:54.507Z,9.88
2022-09-22T20:46:23.454Z,9.88
2022-09-22T20:48:55.935Z,9.92
2022-09-22T20:51:24.899Z,9.88
2022-09-22T20:53:56.481Z,9.86
2022-09-22T20:56:27.830Z,9.88
2022-09-22T20:59:00.490Z,9.83
2022-09-22T21:01:36.854Z,9.84
2022-09-22T21:04:15.525Z,9.80
2022-09-22T21:06:50.733Z,9.82
2022-09-22T21:09:39.014Z,9.75
2022-09-22T21:12:12.295Z,9.72
2022-09-22T21:14:47.334Z,9.68
2022-09-22T21:17:18.003Z,9.65
2022-09-22T21:19:49.519Z,9.63
2022-09-22T21:22:24.078Z,9.56
2022-09-22T23:06:30.250Z,9.54
2022-09-22T23:08:59.599Z,9.58
2022-09-22T23:11:36.207Z,9.64
2022-09-22T23:14:07.363Z,9.64
2022-09-22T23:16:40.011Z,9.71
2022-09-22T23:19:12.082Z,9.72
2022-09-22T23:21:41.125Z,9.74
2022-09-22T23:24:10.655Z,9.81
2022-09-22T23:26:39.575Z,9.80
2022-09-22T23:29:08.377Z,9.87
2022-09-22T23:31:37.135Z,9.88
2022-09-22T23:34:05.875Z,9.89
2022-09-22T23:36:34.512Z,9.90
2022-09-22T23:39:06.286Z,9.99
2022-09-22T23:41:37.498Z,10.01
2022-09-22T23:44:07.367Z,10.05
2022-09-22T23:46:38.061Z,10.08
2022-09-22T23:49:07.199Z,10.09
2022-09-22T23:51:35.937Z,10.13
2022-09-22T23:54:04.745Z,10.12
2022-09-22T23:56:33.423Z,10.12
2022-09-22T23:59:02.068Z,10.17
